• Join FlightAware (Why Join?)
  • Login
  • US Flag 
02:21AM EST


 

Airport Tracker/Info


-or-


 

Live Flight TrackerFlight Track Log ✈ DAL1562 ✈ 11-Apr-2013 ✈ KPHL - KDTW

Flight Track Log - Related Links

Times and Time Zones

All times are in EDT time to prevent confusion due to time zone crossing. See the DAL1562 flight status page for this flight to view local times or setup timezone preferences in your user account.

Time Position Orientation Groundspeed Altitude Reporting Facility
EDT Latitude Longitude Course Direction KTS MPH feet Rate Location/Type
05:11PM 39.8833 -75.2167 93° East 173 199 700  Level Philadelphia TRACON
05:11PM 39.8825 -75.1972 93° East 178 205 1,400 1,380 Climbing FAA TRACON SMA TRACON (SMA)
05:11PM 39.8897 -75.1753 67° East 227 261 1,800 2,100 Climbing FAA TRACON SMA TRACON (SMA)
05:12PM 39.8978 -75.1503 67° East 236 272 2,800 2,400 Climbing FAA TRACON SMA TRACON (SMA)
05:12PM 39.9081 -75.1147 69° East 256 295 3,400 2,400 Climbing FAA TRACON SMA TRACON (SMA)
05:12PM 39.9189 -75.0858 64° Northeast 285 328 4,400 2,820 Climbing FAA TRACON SMA TRACON (SMA)
05:13PM 39.9378 -75.0650 40° Northeast 299 344 5,300 3,300 Climbing FAA TRACON SMA TRACON (SMA)
05:13PM 39.9617 -75.0594 10° North 286 329 6,600 3,120 Climbing FAA TRACON SMA TRACON (SMA)
05:13PM 39.9892 -75.0725 340° North 285 328 7,400 2,700 Climbing FAA TRACON SMA TRACON (SMA)
05:14PM 40.0033 -75.0967 307° West 264 304 8,400 2,820 Climbing FAA TRACON SMA TRACON (SMA)
05:14PM 40.0078 -75.1267 281° West 258 297 9,300 2,220 Climbing FAA TRACON SMA TRACON (SMA)
05:14PM 40.0050 -75.1608 264° West 261 300 9,900 1,200 Climbing FAA TRACON SMA TRACON (SMA)
05:15PM 40.0006 -75.1889 258° West 264 304 10,100 120 Climbing FAA TRACON SMA TRACON (SMA)
05:15PM 39.9944 -75.2269 258° West 286 329 10,000 -180 Descending FAA TRACON SMA TRACON (SMA)
05:15PM 39.9881 -75.2600 256° West 311 358 10,000 120 Level FAA TRACON SMA TRACON (SMA)
05:16PM 39.9814 -75.2958 256° West 340 391 10,100  Climbing FAA TRACON SMA TRACON (SMA)
05:16PM 39.9736 -75.3431 258° West 352 405 10,000 -180 Descending FAA TRACON SMA TRACON (SMA)
05:16PM 39.9672 -75.3811 258° West 351 404 10,000  Level FAA TRACON SMA TRACON (SMA)
05:17PM 39.9611 -75.4189 258° West 350 403 10,000  Level FAA TRACON SMA TRACON (SMA)
05:17PM 39.9542 -75.4639 259° West 350 403 10,000  Level FAA TRACON SMA TRACON (SMA)
05:17PM 39.9469 -75.5036 257° West 350 403 10,000 420 Level FAA TRACON SMA TRACON (SMA)
05:18PM 39.9406 -75.5425 258° West 351 404 10,300 1,800 Climbing FAA TRACON SMA TRACON (SMA)
05:18PM 39.9322 -75.5906 257° West 353 406 11,200 2,520 Climbing FAA TRACON SMA TRACON (SMA)
05:18PM 39.9253 -75.6294 257° West 356 410 12,000 2,220 Climbing FAA TRACON SMA TRACON (SMA)
05:19PM 39.9197 -75.6689 260° West 360 414 12,700 2,400 Climbing FAA TRACON SMA TRACON (SMA)
05:19PM 39.9161 -75.7192 265° West 376 433 13,600 2,400 Climbing FAA TRACON SMA TRACON (SMA)
05:19PM 39.9169 -75.7622 271° West 371 427 14,300 2,220 Climbing FAA TRACON SMA TRACON (SMA)
05:20PM 39.9156 -75.8042 268° West 375 432 15,100 2,520 Climbing FAA TRACON SMA TRACON (SMA)
05:20PM 39.9144 -75.8547 268° West 373 429 16,000 2,100 Climbing FAA TRACON SMA TRACON (SMA)
05:20PM 39.9139 -75.8939 269° West 374 430 16,500 1,800 Climbing FAA TRACON SMA TRACON (SMA)
05:21PM 39.9131 -75.9500 269° West 381 438 17,200 1,920 Climbing FAA TRACON SMA TRACON (SMA)
05:21PM 39.9122 -75.9947 269° West 386 444 17,800 1,200 Climbing FAA TRACON SMA TRACON (SMA)
05:21PM 39.9122 -76.0158 270° West 388 447 18,000 180 Climbing FAA TRACON SMA TRACON (SMA)
05:22PM 39.9122 -76.0158 311° West 388 447 18,000 1,740 Level FAA TRACON SMA TRACON (SMA)
05:24PM 39.9197 -76.4253 271° West 410 472 22,600 1,980 Climbing New York Center
05:25PM 39.9267 -76.5775 273° West 415 478 24,000 1,260 Climbing New York Center
05:26PM 39.9381 -76.7300 276° West 422 486 25,200 1,260 Climbing New York Center
05:27PM 39.9531 -76.8803 277° West 427 491 26,600 1,380 Climbing New York Center
05:28PM 39.9658 -77.0358 276° West 427 491 28,000 1,140 Climbing New York Center
05:30PM 39.9906 -77.3014 277° West 416 479 30,000 660 Climbing Cleveland Center
05:31PM 40.0053 -77.4525 277° West 416 479 30,000  Level Cleveland Center
05:32PM 40.0197 -77.6036 277° West 423 487 30,000  Level Cleveland Center
05:33PM 40.0342 -77.7522 277° West 423 487 30,000  Level Cleveland Center
05:34PM 40.0461 -77.9064 276° West 423 487 30,000  Level Cleveland Center
05:35PM 40.0581 -78.0686 276° West 423 487 30,000  Level Cleveland Center
05:36PM 40.0697 -78.2200 276° West 423 487 30,000  Level Cleveland Center
05:37PM 40.0831 -78.3689 277° West 423 487 30,000  Level Cleveland Center
05:38PM 40.0964 -78.5203 277° West 423 487 30,000  Level Cleveland Center
05:39PM 40.1075 -78.6694 276° West 423 487 30,000  Level Cleveland Center
05:40PM 40.1244 -78.8183 279° West 423 487 30,000  Level Cleveland Center
05:41PM 40.1639 -78.9583 290° West 418 481 30,000  Level Cleveland Center
05:42PM 40.2056 -79.0961 292° West 412 474 30,000  Level Cleveland Center
05:43PM 40.2447 -79.2339 290° West 412 474 30,000  Level Cleveland Center
05:44PM 40.2900 -79.3744 293° West 412 474 30,000  Level Cleveland Center
05:45PM 40.3289 -79.5128 290° West 412 474 30,000  Level Cleveland Center
05:46PM 40.3697 -79.6511 291° West 412 474 30,000  Level Cleveland Center
05:47PM 40.4083 -79.7922 290° West 412 474 30,000  Level Cleveland Center
05:48PM 40.4489 -79.9283 291° West 412 474 30,000  Level Cleveland Center
05:49PM 40.4850 -80.0725 288° West 412 474 30,000  Level Cleveland Center
05:50PM 40.5253 -80.2117 291° West 412 474 30,000  Level Cleveland Center
05:51PM 40.5653 -80.3508 291° West 412 474 30,000  Level Cleveland Center
05:52PM 40.6028 -80.4900 290° West 404 465 30,000  Level Cleveland Center
05:53PM 40.6383 -80.6158 290° West 409 471 30,000  Level Cleveland Center
05:54PM 40.6819 -80.7528 293° West 409 471 30,000  Level Cleveland Center
05:55PM 40.7422 -80.8764 303° West 404 465 30,000  Level Cleveland Center
05:56PM 40.8044 -81.0028 303° West 404 465 30,000  Level Cleveland Center
05:57PM 40.8642 -81.1294 302° West 409 471 30,000 -180 Level Cleveland Center
05:58PM 40.9242 -81.2536 303° West 409 471 29,700 -720 Descending Cleveland Center
05:59PM 40.9878 -81.3892 302° West 409 471 28,600 -1,020 Descending Cleveland Center
06:00PM 41.0453 -81.5053 303° West 396 456 27,700 -1,140 Descending Cleveland Center
06:01PM 41.0986 -81.6192 302° West 381 438 26,400 -1,200 Descending Cleveland Center
06:02PM 41.1517 -81.7192 305° West 375 432 25,400 -1,020 Descending Cleveland Center
06:03PM 41.2047 -81.8333 302° West 369 425 24,400 -720 Descending Cleveland Center
06:04PM 41.2597 -81.9450 303° West 363 418 24,000 -240 Descending Cleveland Center
06:05PM 41.3125 -82.0594 302° West 368 423 24,000 -60 Level Cleveland Center
06:06PM 41.3653 -82.1767 301° West 363 418 23,900 -1,140 Descending Cleveland Center
06:07PM 41.4283 -82.2808 309° West 368 423 21,800 -2,100 Descending Cleveland Center
06:08PM 41.4953 -82.3961 308° West 363 418 19,700 -2,100 Descending Cleveland Center
06:09PM 41.5564 -82.4950 310° West 352 405 17,600 -2,160 Descending Cleveland Center
06:09PM 41.5767 -82.5261 311° West 348 400 16,900 -2,280 Descending Cleveland Center
06:09PM 41.5928 -82.5544 307° West 345 397 16,200 -2,100 Descending Cleveland Center
06:10PM 41.6150 -82.5939 307° West 347 399 15,500 -1,860 Descending Cleveland Center
06:11PM 41.6514 -82.6536 309° West 338 389 14,300 -1,920 Descending Cleveland Center
06:11PM 41.6717 -82.6903 307° West 342 394 13,600 -2,040 Descending Cleveland Center
06:12PM 41.7161 -82.7614 310° West 329 379 12,100 -1,620 Descending Cleveland Center
06:12PM 41.7303 -82.7869 307° West 342 394 12,000 -720 Descending Cleveland Center
06:13PM 41.7975 -82.8669 318° Northwest 329 379 11,200 -1,080 Descending Cleveland Center
06:14PM 41.8444 -82.9189 321° Northwest 316 364 10,200 -1,440 Descending Cleveland Center
06:14PM 41.8628 -82.9447 314° West 324 373 9,800 -1,800 Descending Cleveland Center
06:15PM 41.9075 -82.9967 319° Northwest 294 338 8,400 -1,800 Descending Cleveland Center
06:15PM 41.9172 -83.0222 297° West 306 352 8,000 -1,800 Descending Cleveland Center
06:16PM 41.9156 -83.1031 268° West 287 330 6,600 -1,740 Descending Cleveland Center
06:16PM 41.9169 -83.1308 274° West 274 315 6,300 -600 Descending Cleveland Center
06:17PM 41.9133 -83.2033 266° West 268 308 6,000 -300 Descending Cleveland Center
06:17PM 41.9131 -83.2172 268° West 269 310 6,000 60 Level Cleveland Center
06:18PM 41.9131 -83.3067 270° West 252 290 6,100 -660 Climbing Cleveland Center
06:19PM 41.9156 -83.3764 273° West 220 253 4,900 -1,200 Descending Cleveland Center
06:20PM 41.9364 -83.4639 288° West 226 260 4,000 -600 Descending Cleveland Center
06:21PM 41.9703 -83.5158 311° West 229 264 3,800  Descending Cleveland Center
06:22PM 42.0253 -83.4847 23° Northeast 223 257 4,100 -180 Climbing Cleveland Center
06:23PM 42.0764 -83.4422 32° Northeast 211 243 3,500 -900 Descending Cleveland Center
06:24PM 42.1269 -83.4022 30° Northeast 151 174 2,200 -1,080 Descending FAA TRACON SMA TRACON (SMA)
06:24PM 42.1369 -83.3947 29° Northeast 139 160 2,000 -660 Descending FAA TRACON SMA TRACON (SMA)
06:24PM 42.1492 -83.3858 28° Northeast 139 160 1,800 -780 Descending FAA TRACON SMA TRACON (SMA)
06:25PM 42.1614 -83.3769 28° Northeast 138 159 1,500 -780 Descending FAA TRACON SMA TRACON (SMA)
06:25PM 42.1717 -83.3694 28° Northeast 138 159 1,300 -780 Descending FAA TRACON SMA TRACON (SMA)
06:25PM 42.1839 -83.3606 28° Northeast 140 161 1,000 -780 Descending FAA TRACON SMA TRACON (SMA)
06:26PM 42.1947 -83.3525 29° Northeast 144 166 800 -600 Descending FAA TRACON SMA TRACON (SMA)
06:26PM 42.2069 -83.3433 29° Northeast 120 138 600 -300 Descending FAA TRACON SMA TRACON (SMA)
06:26PM 42.2100 -83.3411 28° Northeast 66 76 600  Level FAA TRACON SMA TRACON (SMA)